sensor_id;sensor_type;location;lat;lon;timestamp;temperature;humidity
14775;DHT22;7479;47.042;15.160;2023-10-19T06:48:24;5.10;99.90
14775;DHT22;7479;47.042;15.160;2023-10-19T07:04:24;5.60;99.90
14775;DHT22;7479;47.042;15.160;2023-10-19T07:09:18;5.80;99.90
14775;DHT22;7479;47.042;15.160;2023-10-19T07:14:13;6.10;99.90
14775;DHT22;7479;47.042;15.160;2023-10-19T07:26:07;6.70;99.90
14775;DHT22;7479;47.042;15.160;2023-10-19T07:31:03;6.80;99.90
14775;DHT22;7479;47.042;15.160;2023-10-19T07:35:57;7.00;99.90
14775;DHT22;7479;47.042;15.160;2023-10-19T07:40:53;7.30;99.90
14775;DHT22;7479;47.042;15.160;2023-10-19T07:45:48;7.50;99.90
14775;DHT22;7479;47.042;15.160;2023-10-19T07:50:42;7.70;99.90
14775;DHT22;7479;47.042;15.160;2023-10-19T07:55:36;8.00;99.90
14775;DHT22;7479;47.042;15.160;2023-10-19T08:00:31;8.20;99.90
14775;DHT22;7479;47.042;15.160;2023-10-19T08:14:31;8.40;99.90
14775;DHT22;7479;47.042;15.160;2023-10-19T08:19:25;8.50;99.90
14775;DHT22;7479;47.042;15.160;2023-10-19T08:33:29;9.10;99.90
14775;DHT22;7479;47.042;15.160;2023-10-19T08:38:26;9.20;99.90
14775;DHT22;7479;47.042;15.160;2023-10-19T08:43:21;9.30;99.90
14775;DHT22;7479;47.042;15.160;2023-10-19T08:48:16;9.40;99.90
14775;DHT22;7479;47.042;15.160;2023-10-19T08:53:12;9.50;99.90
14775;DHT22;7479;47.042;15.160;2023-10-19T08:58:07;9.60;99.90
14775;DHT22;7479;47.042;15.160;2023-10-19T09:03:01;9.70;99.90
14775;DHT22;7479;47.042;15.160;2023-10-19T09:07:57;9.90;99.90
14775;DHT22;7479;47.042;15.160;2023-10-19T09:13:02;10.00;99.90
14775;DHT22;7479;47.042;15.160;2023-10-19T09:17:56;10.20;99.90
14775;DHT22;7479;47.042;15.160;2023-10-19T09:22:50;10.40;99.90
14775;DHT22;7479;47.042;15.160;2023-10-19T09:27:45;10.70;99.90
14775;DHT22;7479;47.042;15.160;2023-10-19T09:32:40;10.90;99.90
14775;DHT22;7479;47.042;15.160;2023-10-19T09:37:34;11.30;99.90
14775;DHT22;7479;47.042;15.160;2023-10-19T09:42:28;11.40;99.90
14775;DHT22;7479;47.042;15.160;2023-10-19T09:47:27;11.50;99.90
14775;DHT22;7479;47.042;15.160;2023-10-19T09:52:25;11.50;99.90
14775;DHT22;7479;47.042;15.160;2023-10-19T09:57:25;11.60;99.90
14775;DHT22;7479;47.042;15.160;2023-10-19T10:02:21;11.70;99.90
14775;DHT22;7479;47.042;15.160;2023-10-19T10:07:18;11.90;99.90
14775;DHT22;7479;47.042;15.160;2023-10-19T10:12:34;12.00;99.90
14775;DHT22;7479;47.042;15.160;2023-10-19T10:17:28;12.00;99.90
14775;DHT22;7479;47.042;15.160;2023-10-19T10:22:22;12.00;99.90
14775;DHT22;7479;47.042;15.160;2023-10-19T10:27:16;12.00;99.90
14775;DHT22;7479;47.042;15.160;2023-10-19T10:32:42;12.00;99.90
14775;DHT22;7479;47.042;15.160;2023-10-19T10:37:37;11.90;99.90
14775;DHT22;7479;47.042;15.160;2023-10-19T10:42:32;11.80;99.90
14775;DHT22;7479;47.042;15.160;2023-10-19T10:47:27;11.80;99.90
14775;DHT22;7479;47.042;15.160;2023-10-19T10:52:28;12.00;99.90
14775;DHT22;7479;47.042;15.160;2023-10-19T10:57:22;12.00;99.90
14775;DHT22;7479;47.042;15.160;2023-10-19T11:02:17;12.10;99.90
14775;DHT22;7479;47.042;15.160;2023-10-19T11:07:19;12.10;99.90
14775;DHT22;7479;47.042;15.160;2023-10-19T11:12:13;12.10;99.90
14775;DHT22;7479;47.042;15.160;2023-10-19T11:17:14;12.30;99.90
14775;DHT22;7479;47.042;15.160;2023-10-19T11:32:59;12.70;99.90
14775;DHT22;7479;47.042;15.160;2023-10-19T11:37:54;12.90;99.90
14775;DHT22;7479;47.042;15.160;2023-10-19T11:42:49;12.90;99.90
14775;DHT22;7479;47.042;15.160;2023-10-19T11:47:42;13.00;99.90
14775;DHT22;7479;47.042;15.160;2023-10-19T11:52:38;13.00;99.90
14775;DHT22;7479;47.042;15.160;2023-10-19T11:57:32;13.00;99.90
14775;DHT22;7479;47.042;15.160;2023-10-19T12:02:26;13.20;99.90
14775;DHT22;7479;47.042;15.160;2023-10-19T12:07:19;13.20;99.90
14775;DHT22;7479;47.042;15.160;2023-10-19T12:12:15;13.30;99.90
14775;DHT22;7479;47.042;15.160;2023-10-19T12:17:08;13.20;99.90
14775;DHT22;7479;47.042;15.160;2023-10-19T12:22:03;13.40;99.90
14775;DHT22;7479;47.042;15.160;2023-10-19T12:26:56;13.60;99.90
14775;DHT22;7479;47.042;15.160;2023-10-19T12:31:52;13.70;99.90
14775;DHT22;7479;47.042;15.160;2023-10-19T12:36:46;13.90;99.90
14775;DHT22;7479;47.042;15.160;2023-10-19T12:41:41;14.20;99.90
14775;DHT22;7479;47.042;15.160;2023-10-19T12:46:35;15.00;99.90
14775;DHT22;7479;47.042;15.160;2023-10-19T12:51:31;15.30;99.90
14775;DHT22;7479;47.042;15.160;2023-10-19T12:56:24;15.60;99.90
14775;DHT22;7479;47.042;15.160;2023-10-19T13:01:21;15.40;99.90
14775;DHT22;7479;47.042;15.160;2023-10-19T13:06:15;15.20;99.90
14775;DHT22;7479;47.042;15.160;2023-10-19T13:11:11;15.10;99.90
14775;DHT22;7479;47.042;15.160;2023-10-19T13:16:10;15.20;99.90
14775;DHT22;7479;47.042;15.160;2023-10-19T13:21:04;15.90;99.90
14775;DHT22;7479;47.042;15.160;2023-10-19T13:25:58;16.60;99.90
14775;DHT22;7479;47.042;15.160;2023-10-19T13:31:05;17.90;99.90
14775;DHT22;7479;47.042;15.160;2023-10-19T13:36:01;20.00;99.90
14775;DHT22;7479;47.042;15.160;2023-10-19T13:40:58;20.50;99.90
14775;DHT22;7479;47.042;15.160;2023-10-19T13:45:51;21.10;99.90
14775;DHT22;7479;47.042;15.160;2023-10-19T13:50:48;23.00;99.90
14775;DHT22;7479;47.042;15.160;2023-10-19T13:55:45;24.40;98.40
14775;DHT22;7479;47.042;15.160;2023-10-19T14:00:41;22.10;99.90
14775;DHT22;7479;47.042;15.160;2023-10-19T14:05:36;20.60;99.90
14775;DHT22;7479;47.042;15.160;2023-10-19T14:10:32;20.40;99.90
14775;DHT22;7479;47.042;15.160;2023-10-19T14:15:27;23.10;99.90
14775;DHT22;7479;47.042;15.160;2023-10-19T14:20:21;26.30;97.60
14775;DHT22;7479;47.042;15.160;2023-10-19T14:25:15;28.40;93.70
14775;DHT22;7479;47.042;15.160;2023-10-19T14:30:17;29.40;91.30
14775;DHT22;7479;47.042;15.160;2023-10-19T14:35:11;28.90;90.70
14775;DHT22;7479;47.042;15.160;2023-10-19T14:40:09;29.10;90.30
14775;DHT22;7479;47.042;15.160;2023-10-19T14:45:05;29.20;89.20
14775;DHT22;7479;47.042;15.160;2023-10-19T14:50:03;28.70;90.50
14775;DHT22;7479;47.042;15.160;2023-10-19T14:54:57;25.90;92.10
14775;DHT22;7479;47.042;15.160;2023-10-19T14:59:51;21.90;98.70
14775;DHT22;7479;47.042;15.160;2023-10-19T15:04:45;20.10;99.90
14775;DHT22;7479;47.042;15.160;2023-10-19T15:09:41;19.10;99.90
14775;DHT22;7479;47.042;15.160;2023-10-19T15:14:34;18.50;99.90
14775;DHT22;7479;47.042;15.160;2023-10-19T15:19:28;18.10;99.90
14775;DHT22;7479;47.042;15.160;2023-10-19T15:24:22;17.70;99.90
14775;DHT22;7479;47.042;15.160;2023-10-19T15:29:17;17.40;99.90
14775;DHT22;7479;47.042;15.160;2023-10-19T15:34:11;17.20;99.90
14775;DHT22;7479;47.042;15.160;2023-10-19T15:39:05;17.00;99.90
14775;DHT22;7479;47.042;15.160;2023-10-19T15:44:03;16.70;99.90
14775;DHT22;7479;47.042;15.160;2023-10-19T15:48:58;16.40;99.90
14775;DHT22;7479;47.042;15.160;2023-10-19T15:53:51;16.20;99.90
14775;DHT22;7479;47.042;15.160;2023-10-19T15:58:45;16.00;99.90
14775;DHT22;7479;47.042;15.160;2023-10-19T16:03:39;15.80;99.90
14775;DHT22;7479;47.042;15.160;2023-10-19T16:08:34;15.50;99.90
